Sara — WDI5167 — position and weather

sailwx.info

Track history (hours):
 
Tides and Currents Weather Stations Pressure Air Temp Water Temp Dewpoint Dewpoint Depression Visibility Wind Speed Wind Dir Waves Ship Positions

Sara

Owner: Miami River Towing Company Inc., Miami, FL. More information available from US FCC via Universal Licensing System and Coast Guard Vessel Documentation Center.

Last reported at 2017-Sep-23 20:30 UTC. Time now 2017-Sep-24 15:44 UTC.
Position N 25°48' W 080°15'.

Length 16 m; draft 2 m.

Type: Towing. MMSI: 367705810.

Date/timePositionNaut miles runAvg speedWind from/ knotsBaromVisibWave heightAir tempDewpointWater temp
2017-Sep-23 20:30N 25°48' W 080°15'2 5.0
2017-Sep-23 20:00N 25°47' W 080°13'2 0.0
2017-Sep-22 02:00N 25°48' W 080°15'0 0.8
2017-Sep-22 01:30N 25°48' W 080°15'0 0.0
2017-Sep-21 16:32N 25°48' W 080°15'0 0.0
2017-Sep-21 16:31N 25°48' W 080°15'2 3.7
2017-Sep-21 16:00N 25°47' W 080°13'2 4.9
2017-Sep-21 15:30N 25°46' W 080°11'1 1.7
2017-Sep-21 15:01N 25°46' W 080°12'1 2.3
2017-Sep-21 14:31N 25°47' W 080°13'1 2.8
2017-Sep-21 14:01N 25°47' W 080°14'1 1.8
2017-Sep-21 13:31N 25°48' W 080°15'0 0.3
2017-Sep-21 13:01N 25°48' W 080°15'0 0.0
2017-Sep-20 19:53N 25°48' W 080°15'0 0.0
2017-Sep-20 19:30N 25°48' W 080°15'1 2.6
2017-Sep-20 19:00N 25°47' W 080°14'2 4.4
2017-Sep-20 18:30N 25°46' W 080°12'0 0.9
2017-Sep-20 18:00N 25°46' W 080°11'1 2.5
2017-Sep-20 17:31N 25°47' W 080°12'1 2.8
2017-Sep-20 17:00N 25°47' W 080°14'1 2.0
2017-Sep-20 16:30N 25°48' W 080°15'0 0.0
2017-Sep-20 16:00N 25°48' W 080°15'0 0.0
2017-Sep-20 15:31N 25°48' W 080°15'0 0.5
2017-Sep-20 15:00N 25°48' W 080°15'0 0.0
2017-Sep-20 14:01N 25°48' W 080°15'0 0.0
2017-Sep-19 00:46N 25°48' W 080°15'0 1.7
2017-Sep-19 00:30N 25°48' W 080°15'1 2.2
2017-Sep-19 00:00N 25°47' W 080°14'1 2.9
2017-Sep-18 23:30N 25°47' W 080°12'1 2.5
2017-Sep-18 23:00N 25°46' W 080°11'1 1.7
2017-Sep-18 22:30N 25°46' W 080°10'2 4.6
2017-Sep-18 22:00N 25°47' W 080°12'3 5.6
2017-Sep-18 21:30N 25°48' W 080°15'0 0.0
2017-Sep-18 21:00N 25°48' W 080°15'0 0.0
2017-Sep-18 20:29N 25°48' W 080°15'0 0.0
2017-Sep-18 19:56N 25°48' W 080°15'0 0.0
2017-Sep-18 19:30N 25°48' W 080°15'0 0.0
2017-Sep-18 18:59N 25°48' W 080°15'0 0.0
2017-Sep-18 18:26N 25°48' W 080°15'0 0.0
2017-Sep-18 17:58N 25°48' W 080°15'0 0.0
2017-Sep-18 17:30N 25°48' W 080°15'0 0.0
2017-Sep-18 12:26N 25°48' W 080°15'1 1.7
2017-Sep-18 12:00N 25°47' W 080°14'1 2.9
2017-Sep-18 11:30N 25°47' W 080°13'1 2.6
2017-Sep-18 11:00N 25°46' W 080°12'1 2.9
2017-Sep-18 10:30N 25°46' W 080°10'2 4.3
2017-Sep-18 10:00N 25°47' W 080°12'3 5.6
2017-Sep-18 09:30N 25°48' W 080°15'0 0.0
2017-Sep-18 09:00N 25°48' W 080°15'0 0.0
2017-Sep-17 01:05N 25°48' W 080°15'0 1.9
2017-Sep-17 01:00N 25°48' W 080°15'3 5.0
2017-Sep-17 00:30N 25°47' W 080°12'2 3.4
2017-Sep-17 00:00N 25°46' W 080°11'1 2.3
2017-Sep-16 23:30N 25°46' W 080°12'1 2.7
2017-Sep-16 23:01N 25°47' W 080°13'1 2.6
2017-Sep-16 22:30N 25°48' W 080°14'1 1.0
2017-Sep-16 22:00N 25°48' W 080°15'0 0.1
2017-Sep-16 21:30N 25°48' W 080°15'1 1.3
2017-Sep-16 21:00N 25°48' W 080°14'1 2.5
2017-Sep-16 20:31N 25°47' W 080°13'1 2.6
2017-Sep-16 20:01N 25°46' W 080°12'1 2.7
2017-Sep-16 19:30N 25°46' W 080°10'0 0.1
2017-Sep-16 19:00N 25°46' W 080°10'0 0.0
2017-Sep-16 18:30N 25°46' W 080°10'0 0.0
2017-Sep-16 18:01N 25°46' W 080°10'0 0.0
2017-Sep-16 17:30N 25°46' W 080°10'0 0.0
2017-Sep-16 17:01N 25°46' W 080°10'0 0.0
2017-Sep-16 16:31N 25°46' W 080°10'0 0.0
2017-Sep-16 16:00N 25°46' W 080°10'0 0.0
2017-Sep-16 15:31N 25°46' W 080°10'0 0.0
2017-Sep-16 15:01N 25°46' W 080°10'0 0.0
2017-Sep-16 14:31N 25°46' W 080°10'1 1.4
2017-Sep-16 14:01N 25°46' W 080°11'1 2.4
2017-Sep-16 13:30N 25°47' W 080°12'1 2.6
2017-Sep-16 13:00N 25°47' W 080°14'1 2.3
2017-Sep-16 12:30N 25°48' W 080°15'2 3.2
2017-Sep-16 12:01N 25°47' W 080°13'2 4.9
2017-Sep-16 11:30N 25°46' W 080°11'1 2.3
2017-Sep-16 11:00N 25°46' W 080°12'0 0.3
2017-Sep-16 10:31N 25°46' W 080°12'1 2.6
2017-Sep-16 10:01N 25°47' W 080°13'1 2.6
2017-Sep-16 09:30N 25°48' W 080°15'0 0.3
2017-Sep-16 09:00N 25°48' W 080°15'0 0.0
2017-Sep-16 08:31N 25°48' W 080°15'0 0.0
2017-Sep-15 09:57N 25°48' W 080°14'0 0.7
2017-Sep-15 09:31N 25°48' W 080°15'1 1.5
2017-Sep-15 09:01N 25°47' W 080°14'1 2.8
2017-Sep-15 08:30N 25°47' W 080°13'1 2.4
2017-Sep-15 08:00N 25°46' W 080°11'1 2.7
2017-Sep-15 07:31N 25°46' W 080°10'2 3.7
2017-Sep-15 07:00N 25°46' W 080°12'3 5.7
2017-Sep-15 06:31N 25°48' W 080°15'1 1.3
2017-Sep-15 06:00N 25°47' W 080°14'1 2.7
2017-Sep-15 05:31N 25°47' W 080°13'1 2.5
2017-Sep-15 05:01N 25°46' W 080°12'1 2.8
2017-Sep-15 04:30N 25°46' W 080°10'2 5.0
2017-Sep-15 04:00N 25°47' W 080°13'2 4.2
2017-Sep-15 03:30N 25°48' W 080°15'0 0.0
2017-Sep-15 03:01N 25°48' W 080°15'0 0.0
2017-Sep-14 18:05N 25°48' W 080°15'0 0.0
2017-Sep-14 18:00N 25°48' W 080°15'0 0.0
2017-Sep-14 17:30N 25°48' W 080°15'0 0.0
2017-Sep-14 17:00N 25°48' W 080°15'0 0.0
2017-Sep-14 16:30N 25°48' W 080°15'0 0.0
2017-Sep-14 16:00N 25°48' W 080°15'0 0.0
2017-Sep-14 15:30N 25°48' W 080°15'0 0.0
2017-Sep-14 15:00N 25°48' W 080°15'0 0.0
2017-Sep-14 14:26N 25°48' W 080°15'0 0.0
2017-Sep-14 14:00N 25°48' W 080°15'0 0.0
2017-Sep-14 13:30N 25°48' W 080°15'0 0.0
2017-Sep-14 12:59N 25°48' W 080°15'  
Track history (hours):
 
Tides and Currents Weather Stations Pressure Air Temp Water Temp Dewpoint Dewpoint Depression Visibility Wind Speed Wind Dir Waves Ship Positions

Sara

Owner: Miami River Towing Company Inc., Miami, FL. More information available from US FCC via Universal Licensing System and Coast Guard Vessel Documentation Center.

Last reported at 2017-Sep-23 20:30 UTC. Time now 2017-Sep-24 15:44 UTC.
Position N 25°48' W 080°15'.

Length 16 m; draft 2 m.

Type: Towing. MMSI: 367705810.

Date/timePositionNaut miles runAvg speedWind from/ knotsBaromVisibWave heightAir tempDewpointWater temp
2017-Sep-23 20:30N 25°48' W 080°15'2 5.0
2017-Sep-23 20:00N 25°47' W 080°13'2 0.0
2017-Sep-22 02:00N 25°48' W 080°15'0 0.8
2017-Sep-22 01:30N 25°48' W 080°15'0 0.0
2017-Sep-21 16:32N 25°48' W 080°15'0 0.0
2017-Sep-21 16:31N 25°48' W 080°15'2 3.7
2017-Sep-21 16:00N 25°47' W 080°13'2 4.9
2017-Sep-21 15:30N 25°46' W 080°11'1 1.7
2017-Sep-21 15:01N 25°46' W 080°12'1 2.3
2017-Sep-21 14:31N 25°47' W 080°13'1 2.8
2017-Sep-21 14:01N 25°47' W 080°14'1 1.8
2017-Sep-21 13:31N 25°48' W 080°15'0 0.3
2017-Sep-21 13:01N 25°48' W 080°15'0 0.0
2017-Sep-20 19:53N 25°48' W 080°15'0 0.0
2017-Sep-20 19:30N 25°48' W 080°15'1 2.6
2017-Sep-20 19:00N 25°47' W 080°14'2 4.4
2017-Sep-20 18:30N 25°46' W 080°12'0 0.9
2017-Sep-20 18:00N 25°46' W 080°11'1 2.5
2017-Sep-20 17:31N 25°47' W 080°12'1 2.8
2017-Sep-20 17:00N 25°47' W 080°14'1 2.0
2017-Sep-20 16:30N 25°48' W 080°15'0 0.0
2017-Sep-20 16:00N 25°48' W 080°15'0 0.0
2017-Sep-20 15:31N 25°48' W 080°15'0 0.5
2017-Sep-20 15:00N 25°48' W 080°15'0 0.0
2017-Sep-20 14:01N 25°48' W 080°15'0 0.0
2017-Sep-19 00:46N 25°48' W 080°15'0 1.7
2017-Sep-19 00:30N 25°48' W 080°15'1 2.2
2017-Sep-19 00:00N 25°47' W 080°14'1 2.9
2017-Sep-18 23:30N 25°47' W 080°12'1 2.5
2017-Sep-18 23:00N 25°46' W 080°11'1 1.7
2017-Sep-18 22:30N 25°46' W 080°10'2 4.6
2017-Sep-18 22:00N 25°47' W 080°12'3 5.6
2017-Sep-18 21:30N 25°48' W 080°15'0 0.0
2017-Sep-18 21:00N 25°48' W 080°15'0 0.0
2017-Sep-18 20:29N 25°48' W 080°15'0 0.0
2017-Sep-18 19:56N 25°48' W 080°15'0 0.0
2017-Sep-18 19:30N 25°48' W 080°15'0 0.0
2017-Sep-18 18:59N 25°48' W 080°15'0 0.0
2017-Sep-18 18:26N 25°48' W 080°15'0 0.0
2017-Sep-18 17:58N 25°48' W 080°15'0 0.0
2017-Sep-18 17:30N 25°48' W 080°15'0 0.0
2017-Sep-18 12:26N 25°48' W 080°15'1 1.7
2017-Sep-18 12:00N 25°47' W 080°14'1 2.9
2017-Sep-18 11:30N 25°47' W 080°13'1 2.6
2017-Sep-18 11:00N 25°46' W 080°12'1 2.9
2017-Sep-18 10:30N 25°46' W 080°10'2 4.3
2017-Sep-18 10:00N 25°47' W 080°12'3 5.6
2017-Sep-18 09:30N 25°48' W 080°15'0 0.0
2017-Sep-18 09:00N 25°48' W 080°15'0 0.0
2017-Sep-17 01:05N 25°48' W 080°15'0 1.9
2017-Sep-17 01:00N 25°48' W 080°15'3 5.0
2017-Sep-17 00:30N 25°47' W 080°12'2 3.4
2017-Sep-17 00:00N 25°46' W 080°11'1 2.3
2017-Sep-16 23:30N 25°46' W 080°12'1 2.7
2017-Sep-16 23:01N 25°47' W 080°13'1 2.6
2017-Sep-16 22:30N 25°48' W 080°14'1 1.0
2017-Sep-16 22:00N 25°48' W 080°15'0 0.1
2017-Sep-16 21:30N 25°48' W 080°15'1 1.3
2017-Sep-16 21:00N 25°48' W 080°14'1 2.5
2017-Sep-16 20:31N 25°47' W 080°13'1 2.6
2017-Sep-16 20:01N 25°46' W 080°12'1 2.7
2017-Sep-16 19:30N 25°46' W 080°10'0 0.1
2017-Sep-16 19:00N 25°46' W 080°10'0 0.0
2017-Sep-16 18:30N 25°46' W 080°10'0 0.0
2017-Sep-16 18:01N 25°46' W 080°10'0 0.0
2017-Sep-16 17:30N 25°46' W 080°10'0 0.0
2017-Sep-16 17:01N 25°46' W 080°10'0 0.0
2017-Sep-16 16:31N 25°46' W 080°10'0 0.0
2017-Sep-16 16:00N 25°46' W 080°10'0 0.0
2017-Sep-16 15:31N 25°46' W 080°10'0 0.0
2017-Sep-16 15:01N 25°46' W 080°10'0 0.0
2017-Sep-16 14:31N 25°46' W 080°10'1 1.4
2017-Sep-16 14:01N 25°46' W 080°11'1 2.4
2017-Sep-16 13:30N 25°47' W 080°12'1 2.6
2017-Sep-16 13:00N 25°47' W 080°14'1 2.3
2017-Sep-16 12:30N 25°48' W 080°15'2 3.2
2017-Sep-16 12:01N 25°47' W 080°13'2 4.9
2017-Sep-16 11:30N 25°46' W 080°11'1 2.3
2017-Sep-16 11:00N 25°46' W 080°12'0 0.3
2017-Sep-16 10:31N 25°46' W 080°12'1 2.6
2017-Sep-16 10:01N 25°47' W 080°13'1 2.6
2017-Sep-16 09:30N 25°48' W 080°15'0 0.3
2017-Sep-16 09:00N 25°48' W 080°15'0 0.0
2017-Sep-16 08:31N 25°48' W 080°15'0 0.0
2017-Sep-15 09:57N 25°48' W 080°14'0 0.7
2017-Sep-15 09:31N 25°48' W 080°15'1 1.5
2017-Sep-15 09:01N 25°47' W 080°14'1 2.8
2017-Sep-15 08:30N 25°47' W 080°13'1 2.4
2017-Sep-15 08:00N 25°46' W 080°11'1 2.7
2017-Sep-15 07:31N 25°46' W 080°10'2 3.7
2017-Sep-15 07:00N 25°46' W 080°12'3 5.7
2017-Sep-15 06:31N 25°48' W 080°15'1 1.3
2017-Sep-15 06:00N 25°47' W 080°14'1 2.7
2017-Sep-15 05:31N 25°47' W 080°13'1 2.5
2017-Sep-15 05:01N 25°46' W 080°12'1 2.8
2017-Sep-15 04:30N 25°46' W 080°10'2 5.0
2017-Sep-15 04:00N 25°47' W 080°13'2 4.2
2017-Sep-15 03:30N 25°48' W 080°15'0 0.0
2017-Sep-15 03:01N 25°48' W 080°15'0 0.0
2017-Sep-14 18:05N 25°48' W 080°15'0 0.0
2017-Sep-14 18:00N 25°48' W 080°15'0 0.0
2017-Sep-14 17:30N 25°48' W 080°15'0 0.0
2017-Sep-14 17:00N 25°48' W 080°15'0 0.0
2017-Sep-14 16:30N 25°48' W 080°15'0 0.0
2017-Sep-14 16:00N 25°48' W 080°15'0 0.0
2017-Sep-14 15:30N 25°48' W 080°15'0 0.0
2017-Sep-14 15:00N 25°48' W 080°15'0 0.0
2017-Sep-14 14:26N 25°48' W 080°15'0 0.0
2017-Sep-14 14:00N 25°48' W 080°15'0 0.0
2017-Sep-14 13:30N 25°48' W 080°15'0 0.0
2017-Sep-14 12:59N 25°48' W 080°15'  

Dump ship's entire track history